Time;durP1;ratioP1;P1;durP2;ratioP2;P2;SDS_P1;SDS_P2;PMS_P1;PMS_P2;Temp;Humidity;BMP_temperature;BMP_pressure;BME280_temperature;BME280_humidity;BME280_pressure;Samples;Min_cycle;Max_cycle;Signal;HPM_P1;HPM_P2
2023/05/27 00:00:53;;;;;;;;;;;;;;;18.11;69.35;102816.81;5047204;28;19928;-54
2023/05/27 00:03:19;;;;;;;;;;;;;;;18.09;69.48;102807.22;5056590;28;19913;-55
2023/05/27 00:05:44;;;;;;;;;;;;;;;17.83;70.94;102808.66;5057571;28;19944;-53
2023/05/27 00:08:10;;;;;;;;;;;;;;;17.99;70.40;102811.09;5059032;28;19920;-55
2023/05/27 00:10:35;;;;;;;;;;;;;;;17.86;71.25;102809.13;5055433;28;19913;-53
2023/05/27 00:13:01;;;;;;;;;;;;;;;17.82;71.20;102812.41;5056591;28;19912;-52
2023/05/27 00:15:26;;;;;;;;;;;;;;;17.53;73.41;102809.69;5054377;28;19920;-52
2023/05/27 00:17:52;;;;;;;;;;;;;;;17.52;74.08;102807.16;5055413;28;19914;-52
2023/05/27 00:20:17;;;;;;;;;;;;;;;17.42;75.39;102807.50;5054046;28;19913;-54
2023/05/27 00:22:43;;;;;;;;;;;;;;;17.54;75.08;102807.81;5055007;28;19913;-55
2023/05/27 00:25:09;;;;;;;;;;;;;;;17.58;74.81;102812.63;5034079;28;19917;-52
2023/05/27 00:27:35;;;;;;;;;;;;;;;17.52;75.07;102807.16;5053664;28;19972;-53
2023/05/27 00:30:01;;;;;;;;;;;;;;;17.40;76.09;102804.16;5035866;28;20253;-54
2023/05/27 00:32:27;;;;;;;;;;;;;;;17.13;78.25;102809.28;5053886;28;19966;-50
2023/05/27 00:34:52;;;;;;;;;;;;;;;17.23;78.20;102807.09;5056055;28;19920;-51
2023/05/27 00:37:18;;;;;;;;;;;;;;;17.10;79.03;102798.84;5038562;28;19923;-54
2023/05/27 00:39:43;;;;;;;;;;;;;;;17.15;79.07;102791.00;5038738;28;21403;-51
2023/05/27 00:42:10;;;;;;;;;;;;;;;17.13;79.15;102798.47;5036033;28;19913;-52
2023/05/27 00:44:35;;;;;;;;;;;;;;;17.11;79.16;102795.13;5041458;28;19920;-52
2023/05/27 00:47:01;;;;;;;;;;;;;;;17.01;80.25;102790.84;5038217;28;19943;-55
2023/05/27 00:49:26;;;;;;;;;;;;;;;17.10;79.96;102796.97;5053020;28;19921;-53
2023/05/27 00:51:52;;;;;;;;;;;;;;;16.94;80.88;102789.91;5057514;28;19912;-53
2023/05/27 00:54:18;;;;;;;;;;;;;;;17.00;80.80;102783.78;5035683;28;19952;-51
2023/05/27 00:56:44;;;;;;;;;;;;;;;16.87;82.13;102783.59;5053240;28;19976;-54
2023/05/27 00:59:10;;;;;;;;;;;;;;;16.89;82.00;102793.19;5035082;28;19955;-52
2023/05/27 01:01:38;;;;;;;;;;;;;;;16.84;82.87;102784.81;5057296;28;19912;-51
2023/05/27 01:04:04;;;;;;;;;;;;;;;16.85;83.20;102780.25;5055040;28;19913;-53
2023/05/27 01:06:39;;;;;;;;;;;;;;;16.68;84.88;102783.16;5052539;28;19955;-50
2023/05/27 01:09:11;;;;;;;;;;;;;;;16.67;85.12;102784.19;5040091;28;19917;-51
2023/05/27 01:11:57;;;;;;;;;;;;;;;16.70;85.40;102774.84;5058365;28;19913;-49
2023/05/27 01:14:23;;;;;;;;;;;;;;;16.70;85.82;102777.56;5040119;28;19955;-54
2023/05/27 01:16:51;;;;;;;;;;;;;;;16.66;86.30;102776.28;5057167;28;19935;-51
2023/05/27 01:19:25;;;;;;;;;;;;;;;16.53;87.58;102768.84;5055609;28;19980;-54
2023/05/27 01:21:52;;;;;;;;;;;;;;;16.60;87.63;102775.16;5060980;28;19920;-54
2023/05/27 01:24:18;;;;;;;;;;;;;;;16.54;87.73;102768.66;5045262;28;19928;-52
2023/05/27 01:26:44;;;;;;;;;;;;;;;16.52;88.37;102777.97;5063959;28;19912;-52
2023/05/27 01:29:09;;;;;;;;;;;;;;;16.43;89.11;102772.69;5063021;28;19949;-50
2023/05/27 01:31:47;;;;;;;;;;;;;;;16.45;89.38;102777.88;5043735;28;19920;-51
2023/05/27 01:34:14;;;;;;;;;;;;;;;16.34;90.89;102768.38;5037951;28;19920;-55
2023/05/27 01:36:45;;;;;;;;;;;;;;;16.40;91.27;102777.59;5045858;28;19913;-54
2023/05/27 01:39:11;;;;;;;;;;;;;;;16.36;92.17;102765.50;5062984;28;19919;-54
2023/05/27 01:41:38;;;;;;;;;;;;;;;16.31;92.12;102763.34;5039400;28;19946;-52
2023/05/27 01:44:04;;;;;;;;;;;;;;;16.31;92.22;102766.91;5059284;28;19939;-54
2023/05/27 01:46:30;;;;;;;;;;;;;;;16.31;92.22;102775.00;5039019;28;19913;-55
2023/05/27 01:48:55;;;;;;;;;;;;;;;16.26;93.24;102765.78;5063701;28;19924;-52
2023/05/27 01:51:20;;;;;;;;;;;;;;;16.29;92.90;102777.06;5044506;28;19921;-51
2023/05/27 01:53:46;;;;;;;;;;;;;;;16.35;92.00;102783.56;5042098;28;19917;-51
2023/05/27 01:56:11;;;;;;;;;;;;;;;16.18;93.10;102781.06;5052992;28;19909;-51
2023/05/27 01:58:36;;;;;;;;;;;;;;;16.11;94.12;102782.00;5059797;28;19974;-54
2023/05/27 02:01:02;;;;;;;;;;;;;;;16.13;94.17;102780.75;5057763;28;19943;-49
2023/05/27 02:03:27;;;;;;;;;;;;;;;16.15;94.52;102780.59;5044422;28;20350;-50
2023/05/27 02:05:52;;;;;;;;;;;;;;;16.04;95.41;102779.19;5061393;28;19917;-49
2023/05/27 02:08:18;;;;;;;;;;;;;;;16.04;95.33;102774.63;5060977;28;19916;-49
2023/05/27 02:10:44;;;;;;;;;;;;;;;16.03;96.59;102772.09;5043199;28;19913;-53
2023/05/27 02:13:09;;;;;;;;;;;;;;;16.08;96.09;102775.09;5060588;28;19913;-56
2023/05/27 02:15:34;;;;;;;;;;;;;;;15.99;96.78;102777.03;5041964;28;19908;-55
2023/05/27 02:18:02;;;;;;;;;;;;;;;15.97;97.71;102772.84;5045627;28;19919;-52
2023/05/27 02:20:29;;;;;;;;;;;;;;;15.88;98.50;102770.22;5042021;28;19949;-48
2023/05/27 02:22:55;;;;;;;;;;;;;;;15.95;98.20;102777.59;5060055;28;19912;-54
2023/05/27 02:25:20;;;;;;;;;;;;;;;15.94;98.19;102775.94;5059343;28;19917;-49
2023/05/27 02:27:48;;;;;;;;;;;;;;;15.98;97.81;102777.22;5041214;28;19920;-56
2023/05/27 02:30:14;;;;;;;;;;;;;;;15.89;98.89;102780.00;5038648;28;19917;-53
2023/05/27 02:32:40;;;;;;;;;;;;;;;15.85;98.93;102788.63;5045248;28;19971;-56
2023/05/27 02:35:07;;;;;;;;;;;;;;;15.79;100.00;102790.19;5042625;28;19912;-55
2023/05/27 02:37:33;;;;;;;;;;;;;;;15.80;100.00;102786.47;5063585;28;19948;-50
2023/05/27 02:39:58;;;;;;;;;;;;;;;15.73;100.00;102783.66;5046285;28;19923;-54
2023/05/27 02:42:24;;;;;;;;;;;;;;;15.62;100.00;102782.22;5045573;28;19920;-52
2023/05/27 02:44:50;;;;;;;;;;;;;;;15.66;100.00;102784.56;5062985;28;19951;-53
2023/05/27 02:47:15;;;;;;;;;;;;;;;15.68;100.00;102779.81;5044709;28;20003;-55
2023/05/27 02:49:41;;;;;;;;;;;;;;;15.69;100.00;102781.53;5039312;28;19913;-55
2023/05/27 02:52:06;;;;;;;;;;;;;;;15.68;100.00;102779.81;5044168;28;19923;-53
2023/05/27 02:54:32;;;;;;;;;;;;;;;15.70;100.00;102783.19;5064449;28;19955;-52
2023/05/27 02:56:57;;;;;;;;;;;;;;;15.72;100.00;102781.16;5061180;28;19928;-51
2023/05/27 02:59:23;;;;;;;;;;;;;;;15.60;100.00;102781.56;5059236;28;19913;-55
2023/05/27 03:01:48;;;;;;;;;;;;;;;15.59;100.00;102779.91;5045279;28;19913;-51
2023/05/27 03:04:16;;;;;;;;;;;;;;;15.56;100.00;102782.97;5057664;28;19917;-54
2023/05/27 03:06:42;;;;;;;;;;;;;;;15.56;100.00;102776.72;5043117;28;19920;-54
2023/05/27 03:09:08;;;;;;;;;;;;;;;15.75;100.00;102775.38;5033849;28;19940;-54
2023/05/27 03:11:35;;;;;;;;;;;;;;;15.91;100.00;102777.13;5040202;28;19924;-54
2023/05/27 03:14:00;;;;;;;;;;;;;;;15.54;100.00;102784.16;5038436;28;19940;-55
2023/05/27 03:16:25;;;;;;;;;;;;;;;15.77;100.00;102778.75;5042113;28;19920;-54
2023/05/27 03:18:51;;;;;;;;;;;;;;;15.77;100.00;102779.56;5041830;28;19913;-54
2023/05/27 03:21:16;;;;;;;;;;;;;;;15.76;100.00;102777.06;5039160;28;19963;-53
2023/05/27 03:23:43;;;;;;;;;;;;;;;15.75;100.00;102780.78;5044150;28;19939;-55
2023/05/27 03:26:08;;;;;;;;;;;;;;;15.76;100.00;102787.84;5038935;28;19917;-53
2023/05/27 03:28:34;;;;;;;;;;;;;;;15.81;100.00;102781.91;5036777;28;19913;-52
2023/05/27 03:31:00;;;;;;;;;;;;;;;15.61;100.00;102780.56;5036665;28;19914;-53
2023/05/27 03:33:38;;;;;;;;;;;;;;;15.68;100.00;102777.97;5038720;28;19913;-53
2023/05/27 03:36:04;;;;;;;;;;;;;;;15.72;100.00;102778.47;5041496;28;19948;-54
2023/05/27 03:38:30;;;;;;;;;;;;;;;15.25;100.00;102770.41;5018089;28;19921;-52
2023/05/27 03:40:56;;;;;;;;;;;;;;;15.16;100.00;102774.16;5041813;28;19913;-50
2023/05/27 03:43:22;;;;;;;;;;;;;;;15.49;100.00;102771.22;5036668;28;19964;-56
2023/05/27 03:45:48;;;;;;;;;;;;;;;15.29;100.00;102755.53;5037250;28;19917;-51
2023/05/27 03:48:13;;;;;;;;;;;;;;;15.18;100.00;102758.66;5043747;28;19917;-51
2023/05/27 03:50:38;;;;;;;;;;;;;;;15.19;100.00;102763.00;5037210;28;19973;-51
2023/05/27 03:53:04;;;;;;;;;;;;;;;15.20;100.00;102753.91;5039114;28;19919;-54
2023/05/27 03:55:30;;;;;;;;;;;;;;;15.20;100.00;102756.59;5044531;28;19909;-50
2023/05/27 03:57:55;;;;;;;;;;;;;;;15.01;100.00;102757.91;5035227;28;20014;-54
2023/05/27 04:00:21;;;;;;;;;;;;;;;15.16;100.00;102755.28;5040989;28;19914;-55
2023/05/27 04:02:47;;;;;;;;;;;;;;;15.19;100.00;102757.63;5035588;28;19917;-54
2023/05/27 04:05:12;;;;;;;;;;;;;;;15.11;100.00;102752.31;5039567;28;20004;-48
2023/05/27 04:07:38;;;;;;;;;;;;;;;15.20;100.00;102746.69;5037659;28;19913;-49
2023/05/27 04:10:04;;;;;;;;;;;;;;;15.03;100.00;102743.28;5024196;28;19957;-51
2023/05/27 04:12:29;;;;;;;;;;;;;;;14.96;100.00;102739.59;5018562;28;19936;-53
2023/05/27 04:14:56;;;;;;;;;;;;;;;15.03;100.00;102751.34;5020950;28;19923;-54
2023/05/27 04:17:21;;;;;;;;;;;;;;;15.00;100.00;102753.56;5025214;28;19913;-51
2023/05/27 04:19:48;;;;;;;;;;;;;;;15.06;100.00;102744.75;5018542;28;19918;-53
2023/05/27 04:22:14;;;;;;;;;;;;;;;15.01;100.00;102742.59;5021087;28;20000;-54
2023/05/27 04:24:40;;;;;;;;;;;;;;;15.19;100.00;102752.22;5020392;28;19928;-54
2023/05/27 04:27:06;;;;;;;;;;;;;;;15.03;100.00;102740.56;5019262;28;19913;-50
2023/05/27 04:29:33;;;;;;;;;;;;;;;15.22;100.00;102742.97;5023907;28;19901;-50
2023/05/27 04:31:59;;;;;;;;;;;;;;;15.20;100.00;102737.75;5015711;28;19925;-50
2023/05/27 04:34:24;;;;;;;;;;;;;;;15.28;100.00;102739.53;5015827;28;19910;-48
2023/05/27 04:36:51;;;;;;;;;;;;;;;15.37;100.00;102748.41;5022545;28;19914;-49
2023/05/27 04:39:20;;;;;;;;;;;;;;;15.38;100.00;102742.84;5018435;28;19918;-48
2023/05/27 04:41:46;;;;;;;;;;;;;;;15.36;100.00;102734.09;5019028;28;19976;-50
2023/05/27 04:44:32;;;;;;;;;;;;;;;15.47;100.00;102735.53;5019800;28;19976;-50
2023/05/27 04:46:59;;;;;;;;;;;;;;;15.46;100.00;102731.16;5021727;28;19917;-52
2023/05/27 04:49:24;;;;;;;;;;;;;;;15.47;100.00;102730.97;5015278;28;19988;-52
2023/05/27 04:51:50;;;;;;;;;;;;;;;15.56;100.00;102738.97;5021845;28;19910;-51
2023/05/27 04:54:19;;;;;;;;;;;;;;;15.67;100.00;102732.28;5016445;28;19913;-54
2023/05/27 04:56:45;;;;;;;;;;;;;;;15.61;100.00;102737.41;5019305;28;19940;-51
2023/05/27 04:59:21;;;;;;;;;;;;;;;15.75;100.00;102732.22;5015396;28;19914;-55
2023/05/27 05:04:33;;;;;;;;;;;;;;;15.79;100.00;102738.94;5030390;28;19918;-51
2023/05/27 05:07:01;;;;;;;;;;;;;;;15.82;100.00;102743.13;5018002;28;19937;-51
2023/05/27 05:09:28;;;;;;;;;;;;;;;15.87;100.00;102738.84;5033777;28;19968;-50
2023/05/27 05:11:56;;;;;;;;;;;;;;;15.91;100.00;102736.66;5041615;28;19944;-50
2023/05/27 05:14:21;;;;;;;;;;;;;;;16.14;100.00;102730.34;5038747;28;19921;-49
2023/05/27 05:16:47;;;;;;;;;;;;;;;16.20;100.00;102726.88;5042669;28;19913;-50
2023/05/27 05:19:13;;;;;;;;;;;;;;;16.08;100.00;102726.50;5040199;28;19960;-51
2023/05/27 05:21:39;;;;;;;;;;;;;;;16.03;100.00;102729.78;5038099;28;19913;-52
2023/05/27 05:24:07;;;;;;;;;;;;;;;16.33;100.00;102728.91;5040193;28;19921;-51
2023/05/27 05:26:33;;;;;;;;;;;;;;;16.45;100.00;102724.72;5041330;28;19918;-53
2023/05/27 05:29:01;;;;;;;;;;;;;;;16.35;100.00;102721.47;5036460;28;19924;-54
2023/05/27 05:31:27;;;;;;;;;;;;;;;16.08;100.00;102713.00;5039630;28;19933;-52
2023/05/27 05:33:54;;;;;;;;;;;;;;;16.35;100.00;102721.47;5039951;28;20036;-56
2023/05/27 05:36:20;;;;;;;;;;;;;;;16.29;100.00;102711.41;5035523;28;19918;-53
2023/05/27 05:38:53;;;;;;;;;;;;;;;16.24;100.00;102719.25;5041386;28;19913;-54
2023/05/27 05:41:18;;;;;;;;;;;;;;;16.25;100.00;102713.66;5036549;28;19919;-53
2023/05/27 05:43:45;;;;;;;;;;;;;;;16.53;100.00;102717.53;5038351;28;19973;-51
2023/05/27 05:46:10;;;;;;;;;;;;;;;16.53;100.00;102718.38;5036087;28;19917;-51
2023/05/27 05:48:36;;;;;;;;;;;;;;;16.38;100.00;102714.84;5037702;28;19920;-49
2023/05/27 05:51:02;;;;;;;;;;;;;;;16.56;100.00;102718.00;5038219;28;19913;-54
2023/05/27 05:53:28;;;;;;;;;;;;;;;16.64;100.00;102717.06;5038303;28;19913;-51
2023/05/27 05:55:54;;;;;;;;;;;;;;;16.60;100.00;102713.03;5032016;28;19923;-55
2023/05/27 05:58:20;;;;;;;;;;;;;;;16.68;100.00;102721.03;5037036;28;19913;-51
2023/05/27 06:00:48;;;;;;;;;;;;;;;16.95;100.00;102710.50;5036143;28;19917;-49
2023/05/27 06:03:35;;;;;;;;;;;;;;;16.83;100.00;102712.03;5037539;28;19913;-51
2023/05/27 06:06:02;;;;;;;;;;;;;;;16.80;100.00;102715.13;5036617;28;20372;-51
2023/05/27 06:08:30;;;;;;;;;;;;;;;16.77;100.00;102706.38;5033331;28;19952;-53
2023/05/27 06:11:02;;;;;;;;;;;;;;;16.99;100.00;102709.13;5019678;28;19913;-53
2023/05/27 06:13:31;;;;;;;;;;;;;;;16.82;100.00;102703.09;5022479;28;19920;-52
2023/05/27 06:15:58;;;;;;;;;;;;;;;17.34;100.00;102705.69;5021559;28;19947;-55
2023/05/27 06:18:24;;;;;;;;;;;;;;;17.11;100.00;102697.81;5022106;28;19913;-53
2023/05/27 06:20:50;;;;;;;;;;;;;;;17.34;100.00;102701.13;5023126;28;19960;-53
2023/05/27 06:23:16;;;;;;;;;;;;;;;17.56;100.00;102690.28;5018261;28;19913;-56
2023/05/27 06:26:02;;;;;;;;;;;;;;;17.42;100.00;102697.47;5026390;28;19921;-56
2023/05/27 06:28:32;;;;;;;;;;;;;;;17.64;100.00;102691.97;5017907;28;19956;-54
2023/05/27 06:30:59;;;;;;;;;;;;;;;17.61;100.00;102697.78;5026449;28;19913;-56
2023/05/27 06:33:25;;;;;;;;;;;;;;;17.56;100.00;102690.28;5024127;28;19932;-55
2023/05/27 06:35:50;;;;;;;;;;;;;;;17.60;100.00;102691.53;5020767;28;19940;-56
2023/05/27 06:38:16;;;;;;;;;;;;;;;17.66;100.00;102695.34;5024510;28;19913;-56
2023/05/27 06:40:41;;;;;;;;;;;;;;;17.60;100.00;102699.66;5024181;28;19914;-54
2023/05/27 06:43:08;;;;;;;;;;;;;;;17.93;100.00;102695.50;5022546;28;19917;-53
2023/05/27 06:45:52;;;;;;;;;;;;;;;18.08;100.00;102692.69;5019732;28;19972;-54
2023/05/27 06:48:44;;;;;;;;;;;;;;;18.08;99.73;102679.16;5020372;28;19969;-54
2023/05/27 06:51:11;;;;;;;;;;;;;;;18.11;99.99;102681.44;5023165;28;19916;-53
2023/05/27 06:53:36;;;;;;;;;;;;;;;18.29;98.52;102678.19;5023839;28;19939;-52
2023/05/27 06:56:08;;;;;;;;;;;;;;;18.31;99.37;102680.72;5020155;28;19941;-55
2023/05/27 06:58:59;;;;;;;;;;;;;;;18.46;96.99;102688.66;4997441;28;19913;-55
2023/05/27 07:01:25;;;;;;;;;;;;;;;18.54;94.94;102682.25;5018716;28;19921;-53
2023/05/27 07:03:58;;;;;;;;;;;;;;;18.44;92.57;102672.59;5021974;28;19922;-55
2023/05/27 07:06:37;;;;;;;;;;;;;;;18.56;93.00;102669.31;5019454;28;19961;-51
2023/05/27 07:09:02;;;;;;;;;;;;;;;18.64;94.57;102666.41;5036444;28;19944;-51
2023/05/27 07:11:32;;;;;;;;;;;;;;;18.83;95.28;102669.38;5038573;28;19913;-51
2023/05/27 07:14:02;;;;;;;;;;;;;;;18.97;93.47;102660.22;5038042;28;19913;-51
2023/05/27 07:16:31;;;;;;;;;;;;;;;18.92;93.65;102657.31;5041011;28;19979;-53
2023/05/27 07:18:57;;;;;;;;;;;;;;;19.35;89.81;102664.22;5039066;28;20478;-54
2023/05/27 07:21:23;;;;;;;;;;;;;;;19.33;91.70;102667.13;5038551;28;19905;-54
2023/05/27 07:23:49;;;;;;;;;;;;;;;18.94;91.95;102654.38;5039384;28;19913;-52
2023/05/27 07:26:22;;;;;;;;;;;;;;;19.16;91.78;102664.00;5037813;28;19917;-54
2023/05/27 07:28:50;;;;;;;;;;;;;;;19.21;91.75;102663.38;5039058;28;19977;-51
2023/05/27 07:31:24;;;;;;;;;;;;;;;19.38;89.31;102663.78;5043366;28;19919;-55
2023/05/27 07:33:55;;;;;;;;;;;;;;;19.53;88.15;102652.69;5039378;28;19913;-55
2023/05/27 07:36:21;;;;;;;;;;;;;;;19.60;87.92;102645.38;5041007;28;19913;-54
2023/05/27 07:38:47;;;;;;;;;;;;;;;19.68;86.77;102648.91;5024092;28;19913;-56
2023/05/27 07:41:12;;;;;;;;;;;;;;;19.78;87.63;102644.72;5058461;28;20038;-54
2023/05/27 07:43:38;;;;;;;;;;;;;;;19.69;88.53;102642.44;5042932;28;19944;-52
2023/05/27 07:46:03;;;;;;;;;;;;;;;19.86;89.11;102634.66;5023865;28;19924;-53
2023/05/27 07:48:30;;;;;;;;;;;;;;;19.77;84.60;102642.19;5038731;28;19920;-57
2023/05/27 07:50:56;;;;;;;;;;;;;;;20.12;83.39;102641.91;5058565;28;19948;-55
2023/05/27 07:53:21;;;;;;;;;;;;;;;20.18;84.40;102638.31;5038892;28;19913;-54
2023/05/27 07:55:48;;;;;;;;;;;;;;;20.37;82.02;102638.44;5037057;28;19924;-53
2023/05/27 07:58:14;;;;;;;;;;;;;;;20.44;83.11;102628.34;5040178;28;19913;-54
2023/05/27 08:01:00;;;;;;;;;;;;;;;20.68;81.01;102623.16;5036613;28;19944;-55
2023/05/27 08:03:26;;;;;;;;;;;;;;;20.81;79.84;102627.69;5038703;28;19913;-54
2023/05/27 08:06:01;;;;;;;;;;;;;;;21.13;79.88;102619.50;5037490;28;19917;-57
2023/05/27 08:08:48;;;;;;;;;;;;;;;21.13;79.04;102619.50;5057243;28;19921;-56
2023/05/27 08:11:33;;;;;;;;;;;;;;;21.32;76.09;102614.91;5037080;28;19981;-53
2023/05/27 08:14:22;;;;;;;;;;;;;;;21.44;73.69;102617.72;5056089;28;19943;-52
2023/05/27 08:17:07;;;;;;;;;;;;;;;21.56;74.17;102612.34;5038408;28;19924;-54
2023/05/27 08:19:59;;;;;;;;;;;;;;;21.48;72.53;102618.94;5023513;28;19920;-55
2023/05/27 08:22:43;;;;;;;;;;;;;;;21.87;70.67;102617.91;5057713;28;19923;-57
2023/05/27 08:25:27;;;;;;;;;;;;;;;22.01;70.70;102610.38;5054110;28;19963;-53
2023/05/27 08:28:11;;;;;;;;;;;;;;;22.10;69.23;102613.63;5055973;28;19936;-52
2023/05/27 08:30:51;;;;;;;;;;;;;;;22.25;69.33;102611.31;5036817;28;19912;-54
2023/05/27 08:33:27;;;;;;;;;;;;;;;22.26;70.05;102603.97;5038398;28;19917;-56
2023/05/27 08:35:53;;;;;;;;;;;;;;;22.57;68.55;102604.78;5036321;28;19920;-55
2023/05/27 08:38:18;;;;;;;;;;;;;;;22.68;66.87;102603.16;5053800;28;19941;-52
2023/05/27 08:40:44;;;;;;;;;;;;;;;22.80;66.30;102597.72;5036650;28;19935;-57
2023/05/27 08:43:09;;;;;;;;;;;;;;;22.90;66.25;102597.97;5040987;28;19913;-56
2023/05/27 08:45:45;;;;;;;;;;;;;;;22.87;66.63;102582.91;5036216;28;19992;-54
2023/05/27 08:48:11;;;;;;;;;;;;;;;22.95;66.19;102584.44;5058273;28;19913;-53
2023/05/27 08:50:38;;;;;;;;;;;;;;;22.96;65.99;102575.19;5038937;28;19917;-53
2023/05/27 08:53:05;;;;;;;;;;;;;;;23.04;64.70;102580.28;5038511;28;19913;-55
2023/05/27 08:55:32;;;;;;;;;;;;;;;23.01;64.41;102569.84;5036447;28;19912;-53
2023/05/27 08:57:58;;;;;;;;;;;;;;;23.00;65.19;102568.19;5036253;28;19931;-54
2023/05/27 09:00:27;;;;;;;;;;;;;;;23.02;65.83;102568.78;5036334;28;19988;-53
2023/05/27 09:02:59;;;;;;;;;;;;;;;23.39;64.80;102566.88;5036031;28;19943;-56
2023/05/27 09:05:28;;;;;;;;;;;;;;;23.40;64.51;102568.53;5039368;28;19928;-57
2023/05/27 09:07:54;;;;;;;;;;;;;;;23.69;64.06;102555.78;5054989;28;19920;-55
2023/05/27 09:10:20;;;;;;;;;;;;;;;23.77;63.99;102551.81;5053321;28;19913;-55
2023/05/27 09:12:45;;;;;;;;;;;;;;;23.84;62.75;102559.84;5052334;28;19912;-56
2023/05/27 09:15:11;;;;;;;;;;;;;;;24.18;61.79;102559.97;5056996;28;19951;-55
2023/05/27 09:17:41;;;;;;;;;;;;;;;24.32;60.91;102560.50;5055155;28;19916;-55
2023/05/27 09:20:07;;;;;;;;;;;;;;;24.35;60.84;102551.78;5035971;28;19913;-55
2023/05/27 09:22:33;;;;;;;;;;;;;;;24.48;60.29;102553.38;5054752;28;19970;-50
2023/05/27 09:24:59;;;;;;;;;;;;;;;24.77;59.89;102553.28;5055900;28;19917;-52
2023/05/27 09:27:25;;;;;;;;;;;;;;;24.99;59.25;102555.25;5059060;28;19913;-55
2023/05/27 09:29:51;;;;;;;;;;;;;;;25.14;58.38;102555.47;5053840;28;19913;-54
2023/05/27 09:32:29;;;;;;;;;;;;;;;25.29;56.69;102549.38;5052936;28;19987;-53
2023/05/27 09:34:55;;;;;;;;;;;;;;;25.69;55.90;102552.06;5053691;28;19986;-56
2023/05/27 09:37:24;;;;;;;;;;;;;;;25.94;53.63;102558.91;5056974;28;19924;-55
2023/05/27 09:39:51;;;;;;;;;;;;;;;26.54;52.75;102554.25;5056511;28;19912;-54
2023/05/27 09:42:17;;;;;;;;;;;;;;;26.97;51.67;102558.97;5055887;28;19913;-55
2023/05/27 09:44:45;;;;;;;;;;;;;;;27.63;50.09;102546.63;5043588;28;19923;-56
2023/05/27 09:47:11;;;;;;;;;;;;;;;28.24;48.78;102553.34;5058891;28;19947;-52
2023/05/27 09:49:37;;;;;;;;;;;;;;;28.32;47.90;102547.31;5058615;28;19913;-51
2023/05/27 09:52:05;;;;;;;;;;;;;;;28.82;45.97;102540.38;5059244;28;19924;-56
2023/05/27 09:54:31;;;;;;;;;;;;;;;29.41;44.94;102549.84;5043468;28;19944;-59
2023/05/27 09:56:57;;;;;;;;;;;;;;;30.10;42.92;102543.63;5060482;28;19924;-57
2023/05/27 09:59:23;;;;;;;;;;;;;;;30.59;42.32;102540.97;5060252;28;19913;-57
2023/05/27 10:01:50;;;;;;;;;;;;;;;31.07;41.19;102533.84;5055215;28;20131;-56
2023/05/27 10:04:16;;;;;;;;;;;;;;;31.59;39.55;102545.06;5057956;28;19912;-56
2023/05/27 10:06:41;;;;;;;;;;;;;;;32.08;38.89;102534.69;5058860;28;19913;-56
2023/05/27 10:09:08;;;;;;;;;;;;;;;32.73;37.68;102537.69;5060452;28;19920;-56
2023/05/27 10:11:38;;;;;;;;;;;;;;;33.01;36.32;102533.00;5060301;28;19946;-52
2023/05/27 10:14:05;;;;;;;;;;;;;;;33.69;34.70;102539.88;5057933;28;19912;-54
2023/05/27 10:16:31;;;;;;;;;;;;;;;33.55;34.55;102537.94;5060094;28;19944;-53
2023/05/27 10:18:57;;;;;;;;;;;;;;;34.02;34.47;102532.13;5056167;28;19913;-56
2023/05/27 10:21:26;;;;;;;;;;;;;;;34.31;33.78;102532.78;5058243;28;19912;-52
2023/05/27 10:23:59;;;;;;;;;;;;;;;34.51;33.11;102530.63;5054901;28;19913;-54
2023/05/27 10:26:31;;;;;;;;;;;;;;;34.71;32.24;102532.81;5058557;28;19923;-52
2023/05/27 10:29:04;;;;;;;;;;;;;;;35.19;31.59;102535.13;5057206;28;19913;-56
2023/05/27 10:31:30;;;;;;;;;;;;;;;35.57;30.86;102535.31;5058468;28;19920;-51
2023/05/27 10:33:57;;;;;;;;;;;;;;;35.63;30.76;102524.81;5055761;28;19944;-57
2023/05/27 10:36:23;;;;;;;;;;;;;;;35.57;29.58;102532.53;5057903;28;19980;-54
2023/05/27 10:38:55;;;;;;;;;;;;;;;35.78;29.11;102531.88;5057812;28;19913;-58
2023/05/27 10:41:22;;;;;;;;;;;;;;;35.76;28.88;102527.78;5055808;28;19993;-58
2023/05/27 10:43:54;;;;;;;;;;;;;;;36.00;28.60;102518.91;5059959;28;19968;-58
2023/05/27 10:46:20;;;;;;;;;;;;;;;36.40;28.36;102523.41;5057106;28;19917;-55
2023/05/27 10:48:45;;;;;;;;;;;;;;;36.85;27.97;102522.88;5058240;28;19996;-54
2023/05/27 10:51:10;;;;;;;;;;;;;;;37.04;27.46;102513.28;5060967;28;19941;-55
2023/05/27 10:53:37;;;;;;;;;;;;;;;37.10;27.29;102511.09;5055701;28;19913;-58
2023/05/27 10:56:03;;;;;;;;;;;;;;;37.53;26.97;102500.78;5055932;28;19920;-56
2023/05/27 10:58:28;;;;;;;;;;;;;;;37.72;26.70;102508.63;5059484;28;19923;-55
2023/05/27 11:00:55;;;;;;;;;;;;;;;37.55;26.90;102498.47;5059866;28;19936;-56
2023/05/27 11:03:27;;;;;;;;;;;;;;;38.02;26.04;102502.91;5060035;28;20003;-55
2023/05/27 11:06:11;;;;;;;;;;;;;;;37.90;25.97;102497.28;5057141;28;19947;-55
2023/05/27 11:08:40;;;;;;;;;;;;;;;38.19;26.02;102495.50;5055175;28;19972;-59
2023/05/27 11:11:09;;;;;;;;;;;;;;;38.70;24.53;102487.59;5057022;28;19944;-56
2023/05/27 11:13:39;;;;;;;;;;;;;;;39.26;24.29;102488.91;5057001;28;19932;-55
2023/05/27 11:16:05;;;;;;;;;;;;;;;39.47;23.93;102487.09;5057258;28;19913;-57
2023/05/27 11:18:37;;;;;;;;;;;;;;;39.55;23.14;102481.34;5056265;28;19949;-58
2023/05/27 11:21:03;;;;;;;;;;;;;;;39.74;23.44;102474.25;5057892;28;19913;-60
2023/05/27 11:23:34;;;;;;;;;;;;;;;40.19;23.33;102482.59;5055112;28;20005;-58
2023/05/27 11:26:01;;;;;;;;;;;;;;;40.49;22.47;102473.72;5055954;28;19923;-58
2023/05/27 11:28:26;;;;;;;;;;;;;;;40.10;23.32;102463.97;5056750;28;19913;-58
2023/05/27 11:30:57;;;;;;;;;;;;;;;40.63;22.82;102462.03;5053225;28;19916;-56
2023/05/27 11:33:35;;;;;;;;;;;;;;;40.91;20.96;102463.84;5054543;28;19913;-58
2023/05/27 11:36:05;;;;;;;;;;;;;;;40.98;21.33;102458.44;5056492;28;19917;-59
2023/05/27 11:38:30;;;;;;;;;;;;;;;41.56;21.97;102454.78;5055668;28;19972;-58
2023/05/27 11:41:06;;;;;;;;;;;;;;;41.40;21.51;102448.44;5054739;28;19921;-57
2023/05/27 11:43:32;;;;;;;;;;;;;;;41.82;20.87;102444.81;5056933;28;19936;-60
2023/05/27 11:46:04;;;;;;;;;;;;;;;41.89;20.75;102434.88;5056669;28;19939;-59
2023/05/27 11:48:30;;;;;;;;;;;;;;;41.70;21.20;102433.75;5055447;28;19913;-58
2023/05/27 11:50:55;;;;;;;;;;;;;;;42.02;20.27;102427.91;5054835;28;19913;-58
2023/05/27 11:53:20;;;;;;;;;;;;;;;41.99;20.12;102423.03;5056774;28;19920;-58
2023/05/27 11:55:46;;;;;;;;;;;;;;;42.11;20.24;102419.22;5056262;28;19920;-60
2023/05/27 11:58:12;;;;;;;;;;;;;;;42.31;20.36;102419.09;5055457;28;19948;-58
2023/05/27 12:00:37;;;;;;;;;;;;;;;42.33;19.51;102409.09;5058184;28;19924;-59
2023/05/27 12:03:03;;;;;;;;;;;;;;;42.55;19.08;102404.59;5054271;28;19913;-56
2023/05/27 12:05:28;;;;;;;;;;;;;;;42.72;19.01;102408.03;5056082;28;19952;-59
2023/05/27 12:07:54;;;;;;;;;;;;;;;42.67;19.25;102403.53;5055612;28;19913;-58
2023/05/27 12:10:20;;;;;;;;;;;;;;;42.27;18.49;102400.19;5053965;28;19976;-60
2023/05/27 12:12:45;;;;;;;;;;;;;;;42.32;18.74;102390.63;5053859;28;19920;-59
2023/05/27 12:15:11;;;;;;;;;;;;;;;42.80;19.11;102392.06;5054388;28;19917;-59
2023/05/27 12:17:36;;;;;;;;;;;;;;;43.05;18.51;102386.75;5054713;28;19951;-59
2023/05/27 12:20:05;;;;;;;;;;;;;;;43.28;18.82;102380.94;5056436;28;19963;-60
2023/05/27 12:22:32;;;;;;;;;;;;;;;43.38;18.85;102387.91;5055961;28;19913;-55
2023/05/27 12:24:58;;;;;;;;;;;;;;;43.39;17.94;102378.25;5060039;28;19917;-59
2023/05/27 12:27:23;;;;;;;;;;;;;;;43.32;18.77;102372.56;5056178;28;19920;-59
2023/05/27 12:29:49;;;;;;;;;;;;;;;43.64;18.96;102379.69;5053813;28;19935;-59
2023/05/27 12:32:15;;;;;;;;;;;;;;;43.34;18.44;102380.63;5034354;28;19920;-58
2023/05/27 12:34:41;;;;;;;;;;;;;;;43.35;17.16;102376.59;5056391;28;20725;-60
2023/05/27 12:37:06;;;;;;;;;;;;;;;43.48;18.06;102372.31;5056965;28;19981;-60
2023/05/27 12:39:32;;;;;;;;;;;;;;;43.36;17.91;102372.59;5059552;28;20372;-60